Flight Track Log - Related Links

Times and Time Zones

All times are in EDT time to prevent confusion due to time zone crossing. See the JBU673 flight status page for this flight to view local times or setup timezone preferences in your user account.

Time Position Orientation Groundspeed Altitude Reporting Facility
EDT Latitude Longitude Course Direction KTS MPH feet Rate Location/Type
Wed 11:22:03 AM 40.6500 -73.7000 270° West 199 229 2,000  Level New York TRACON
Wed 11:23:03 AM 40.6000 -73.6667 153° Southeast 279 321 3,600 2,250 Climbing New York TRACON
Wed 11:24:00 AM 40.3649 -74.2030 232° Southwest  Level FlightAware Approximate
Wed 11:24:03 AM 40.5333 -73.7000 201° Southwest 279 321 6,500  Level New York TRACON
Wed 11:25:00 AM 40.2981 -74.3144 232° Southwest  Level FlightAware Approximate
Wed 11:25:03 AM 40.4833 -73.7667 225° Southwest 277 319 8,900  Level New York TRACON
Wed 11:26:00 AM 40.2335 -74.4221 226° Southwest  Level FlightAware Approximate
Wed 11:26:03 AM 40.4500 -73.8667 246° West 291 335 10,900  Level New York TRACON
Wed 11:27:00 AM 40.1833 -74.5391 270° West  Level FlightAware Approximate
Wed 11:27:46 AM 40.3831 -74.0353 243° Southwest 344 396 13,300  Level New York Center
Wed 11:28:48 AM 40.3358 -74.1608 244° Southwest 349 402 15,400 1,800 Climbing New York Center
Wed 11:29:46 AM 40.2931 -74.2675 242° Southwest 361 415 16,900 814 Climbing New York Center
Wed 11:30:46 AM 40.2456 -74.3931 244° Southwest 367 422 17,000 49 Climbing New York Center
Wed 11:31:48 AM 40.2281 -74.5497 262° West 388 447 17,000 639 Level New York Center
Wed 11:32:48 AM 40.2128 -74.6983 262° West 399 459 18,300 1,400 Climbing New York Center
Wed 11:33:48 AM 40.1981 -74.8308 262° West 417 480 19,800 1,563 Climbing New York Center
Wed 11:34:47 AM 40.1858 -74.9931 264° West 417 480 21,400 1,513 Climbing New York Center
Wed 11:35:47 AM 40.1744 -75.1392 264° West 417 480 22,800 1,300 Climbing New York Center
Wed 11:36:47 AM 40.1606 -75.2875 263° West 417 480 24,000 1,150 Climbing New York Center
Wed 11:37:47 AM 40.1464 -75.4333 263° West 417 480 25,100 1,059 Climbing New York Center
Wed 11:38:46 AM 40.1322 -75.5817 263° West 417 480 26,100 992 Climbing New York Center
Wed 11:39:48 AM 40.1197 -75.7303 264° West 417 480 27,100 1,033 Climbing New York Center
Wed 11:40:48 AM 40.1050 -75.8783 263° West 422 486 28,200 1,068 Climbing New York Center
Wed 11:41:46 AM 40.0903 -76.0267 263° West 422 486 29,200 1,017 Climbing New York Center
Wed 11:42:46 AM 40.0756 -76.1692 262° West 417 480 30,200 992 Climbing New York Center
Wed 11:43:47 AM 40.0569 -76.3008 260° West 417 480 31,200 893 Climbing New York Center
Wed 11:44:47 AM 40.0397 -76.4431 261° West 417 480 32,000 397 Climbing New York Center
Wed 11:45:48 AM 40.0264 -76.5858 263° West 405 466 32,000  Level New York Center
Wed 11:46:47 AM 40.0108 -76.7336 262° West 405 466 32,000 303 Level New York Center
Wed 11:47:47 AM 39.9950 -76.8758 262° West 405 466 32,600 700 Climbing New York Center
Wed 11:48:47 AM 39.9792 -77.0236 262° West 410 472 33,400 694 Climbing New York Center
Wed 11:49:48 AM 39.9633 -77.1631 262° West 405 466 34,000 303 Climbing New York Center
Wed 11:50:46 AM 39.9514 -77.3056 264° West 400 460 34,000  Level New York Center
Wed 11:51:46 AM 39.9539 -77.4439 271° West 395 455 34,000  Level New York Center
Wed 11:53:14 AM 39.9608 -77.6578 272° West 400 460 34,000  Level Cleveland Center
Wed 11:54:14 AM 39.9642 -77.7986 272° West 394 453 34,000  Level Cleveland Center
Wed 11:55:14 AM 39.9700 -77.9553 273° West 394 453 34,000  Level Cleveland Center
Wed 11:57:14 AM 39.9764 -78.2369 272° West 399 459 34,000  Level Cleveland Center
Wed 11:58:14 AM 39.9811 -78.3775 273° West 399 459 34,000  Level Cleveland Center
Wed 11:59:14 AM 39.9858 -78.5183 273° West 399 459 34,000  Level Cleveland Center
Wed 12:00:14 PM 39.9883 -78.6564 271° West 394 453 34,000 -50 Level Cleveland Center
Wed 12:01:14 PM 39.9906 -78.7947 271° West 389 448 33,900  Descending Cleveland Center
Wed 12:02:14 PM 39.9928 -78.9300 271° West 384 442 34,000 50 Climbing Cleveland Center
Wed 12:03:14 PM 40.0008 -79.0708 274° West 384 442 34,000  Level Cleveland Center
Wed 12:04:14 PM 40.0025 -79.2117 271° West 384 442 34,000  Level Cleveland Center
Wed 12:05:14 PM 40.0042 -79.3525 271° West 384 442 34,000  Level Cleveland Center
Wed 12:06:14 PM 40.0056 -79.4908 271° West 389 448 34,000  Level Cleveland Center
Wed 12:07:14 PM 40.0092 -79.6344 272° West 389 448 34,000  Level Cleveland Center
Wed 12:08:14 PM 40.0100 -79.7781 270° West 389 448 34,000  Level Cleveland Center
Wed 12:09:15 PM 40.0111 -79.9164 271° West 389 448 34,000  Level Cleveland Center
Wed 12:10:15 PM 40.0158 -80.0600 273° West 389 448 34,000  Level Cleveland Center
Wed 12:11:15 PM 40.0144 -80.1711 269° West 389 448 34,000  Level Cleveland Center
Wed 12:12:14 PM 40.0169 -80.3256 271° West 389 448 34,000  Level Cleveland Center
Wed 12:13:15 PM 40.0172 -80.4692 270° West 389 448 34,000  Level Cleveland Center
Wed 12:14:15 PM 40.0192 -80.6075 271° West 389 448 34,000  Level Cleveland Center
Wed 12:16:14 PM 40.0164 -80.8883 269° West 394 453 34,000  Level Indianapolis Center
Wed 12:17:16 PM 40.0122 -81.0592 268° West 399 459 34,000  Level Indianapolis Center
Wed 12:18:18 PM 40.0119 -81.2036 270° West 398 458 34,000  Level Indianapolis Center
Wed 12:19:20 PM 40.0083 -81.3481 268° West 395 455 34,000  Level Indianapolis Center
Wed 12:20:21 PM 40.0061 -81.4928 269° West 394 453 34,000  Level Indianapolis Center
Wed 12:21:23 PM 40.0031 -81.6375 268° West 395 455 34,000 -48 Level Indianapolis Center
Wed 12:22:25 PM 40.0000 -81.7792 268° West 402 463 33,900  Descending Indianapolis Center
Wed 12:23:27 PM 39.9964 -81.9264 268° West 402 463 34,000 49 Climbing Indianapolis Center
Wed 12:24:28 PM 39.9933 -82.0714 268° West 397 457 34,000 -49 Level Indianapolis Center
Wed 12:25:30 PM 39.9894 -82.2439 268° West 405 466 33,900 -48 Descending Indianapolis Center
Wed 12:26:32 PM 39.9850 -82.3914 268° West 404 465 33,900  Level Indianapolis Center
Wed 12:27:33 PM 39.9811 -82.5400 268° West 406 467 33,900  Level Indianapolis Center
Wed 12:28:35 PM 39.9761 -82.6914 268° West 413 475 33,900 48 Level Indianapolis Center
Wed 12:29:37 PM 39.9722 -82.8419 268° West 412 474 34,000 48 Climbing Indianapolis Center
Wed 12:30:39 PM 39.9675 -82.9922 268° West 411 473 34,000  Level Indianapolis Center
Wed 12:31:40 PM 39.9631 -83.1439 268° West 416 479 34,000 -49 Level Indianapolis Center
Wed 12:32:42 PM 39.9606 -83.2917 269° West 408 470 33,900 -48 Descending Indianapolis Center
Wed 12:33:44 PM 39.9550 -83.4636 268° West 412 474 33,900  Level Indianapolis Center
Wed 12:34:46 PM 39.9486 -83.6125 267° West 417 480 33,900 49 Level Indianapolis Center
Wed 12:35:47 PM 39.9431 -83.7625 267° West 415 478 34,000  Climbing Indianapolis Center
Wed 12:36:49 PM 39.9369 -83.9133 267° West 417 480 33,900  Descending Indianapolis Center
Wed 12:37:51 PM 39.9308 -84.0644 267° West 415 478 34,000  Climbing Indianapolis Center
Wed 12:38:52 PM 39.9281 -84.2169 269° West 418 481 33,900  Descending Indianapolis Center
Wed 12:39:54 PM 39.9497 -84.3947 279° West 422 486 34,000 48 Climbing Indianapolis Center
Wed 12:40:56 PM 39.9656 -84.5478 278° West 422 486 34,000 -49 Level Indianapolis Center
Wed 12:41:57 PM 39.9794 -84.6978 277° West 414 476 33,900 -49 Descending Indianapolis Center
Wed 12:42:59 PM 39.9925 -84.8472 277° West 410 472 33,900  Level Indianapolis Center
Wed 12:44:01 PM 39.9908 -84.9989 269° West 415 478 33,900  Level Indianapolis Center
Wed 12:45:02 PM 39.9853 -85.1503 267° West 415 478 33,900  Level Indianapolis Center
Wed 12:46:04 PM 39.9803 -85.3036 268° West 421 484 33,900 48 Level Indianapolis Center
Wed 12:47:06 PM 39.9750 -85.4567 267° West 420 483 34,000  Climbing Indianapolis Center
Wed 12:48:07 PM 39.9689 -85.6097 267° West 420 483 33,900 -49 Descending Indianapolis Center
Wed 12:49:09 PM 39.9628 -85.7647 267° West 423 487 33,900 48 Level Indianapolis Center
Wed 12:50:11 PM 39.9567 -85.9339 267° West 422 486 34,000 49 Climbing Indianapolis Center
Wed 12:51:12 PM 39.9514 -86.0875 267° West 424 488 34,000  Level Indianapolis Center
Wed 12:52:14 PM 39.9450 -86.2394 267° West 421 484 34,000  Level Indianapolis Center
Wed 12:53:16 PM 39.9386 -86.3928 267° West 423 487 34,000  Level Indianapolis Center
Wed 12:54:18 PM 39.9331 -86.5467 267° West 424 488 34,000  Level Indianapolis Center
Wed 12:55:19 PM 39.9239 -86.7294 266° West 422 486 34,000  Level Indianapolis Center
Wed 12:56:21 PM 39.9169 -86.8825 267° West 423 487 34,000  Level Indianapolis Center
Wed 12:57:23 PM 39.9106 -87.0356 267° West 423 487 34,000  Level Indianapolis Center
Wed 12:58:24 PM 39.9036 -87.1881 267° West 422 486 34,000  Level Indianapolis Center
Wed 12:59:26 PM 39.8956 -87.3392 266° West 420 483 34,000  Level Indianapolis Center
Wed 01:00:28 PM 39.8878 -87.4922 266° West 422 486 34,000  Level Indianapolis Center
Wed 01:01:29 PM 39.8800 -87.6436 266° West 421 484 34,000  Level Indianapolis Center
Wed 01:02:31 PM 39.8719 -87.7958 266° West 421 484 34,000  Level Indianapolis Center
Wed 01:03:33 PM 39.8628 -87.9797 266° West 423 487 34,000  Level Indianapolis Center
Wed 01:04:34 PM 39.8542 -88.1342 266° West 424 488 34,000  Level Indianapolis Center
Wed 01:05:40 PM 39.8458 -88.2756 266° West 427 491 34,000  Level Kansas City Center
Wed 01:06:42 PM 39.8342 -88.4603 265° West 426 490 34,000 -48 Level Kansas City Center
Wed 01:07:46 PM 39.8250 -88.6136 266° West 426 490 33,900  Descending Kansas City Center
Wed 01:08:47 PM 39.8153 -88.7686 265° West 427 491 34,000 49 Climbing Kansas City Center
Wed 01:09:48 PM 39.8056 -88.9225 265° West 427 491 34,000  Level Kansas City Center
Wed 01:10:52 PM 39.7958 -89.0756 265° West 425 489 34,000  Level Kansas City Center
Wed 01:11:52 PM 39.7856 -89.2269 265° West 422 486 34,000  Level Kansas City Center
Wed 01:12:56 PM 39.7753 -89.3803 265° West 423 487 34,000  Level Kansas City Center
Wed 01:13:58 PM 39.7628 -89.5636 265° West 423 487 34,000  Level Kansas City Center
Wed 01:14:58 PM 39.7514 -89.7189 265° West 428 493 34,000  Level Kansas City Center
Wed 01:15:59 PM 39.7400 -89.8731 265° West 428 493 34,000  Level Kansas City Center
Wed 01:17:04 PM 39.7289 -90.0300 265° West 432 497 34,000  Level Kansas City Center
Wed 01:18:05 PM 39.6894 -90.1825 251° West 437 503 34,000  Level Kansas City Center
Wed 01:19:08 PM 39.6317 -90.3208 242° Southwest 437 503 34,000  Level Kansas City Center
Wed 01:20:09 PM 39.5750 -90.4592 242° Southwest 437 503 34,000  Level Kansas City Center
Wed 01:21:10 PM 39.5042 -90.6236 241° Southwest 439 505 34,000  Level Kansas City Center
Wed 01:22:13 PM 39.4467 -90.7597 241° Southwest 437 503 34,000  Level Kansas City Center
Wed 01:23:14 PM 39.3883 -90.8969 241° Southwest 437 503 34,000  Level Kansas City Center
Wed 01:24:18 PM 39.3289 -91.0339 241° Southwest 438 504 34,000  Level Kansas City Center
Wed 01:25:18 PM 39.2703 -91.1717 241° Southwest 439 505 34,000  Level Kansas City Center
Wed 01:26:21 PM 39.2014 -91.3333 241° Southwest 436 502 34,000  Level Kansas City Center
Wed 01:27:22 PM 39.1419 -91.4711 241° Southwest 439 505 34,000  Level Kansas City Center
Wed 01:28:25 PM 39.0811 -91.6094 241° Southwest 444 511 34,000  Level Kansas City Center
Wed 01:29:26 PM 39.0172 -91.7575 241° Southwest 445 512 34,000  Level Kansas City Center
Wed 01:30:30 PM 38.9550 -91.8967 240° Southwest 448 516 34,000  Level Kansas City Center
Wed 01:31:31 PM 38.8936 -92.0367 241° Southwest 450 518 34,000  Level Kansas City Center
Wed 01:32:34 PM 38.8311 -92.1772 240° Southwest 453 521 34,000  Level Kansas City Center
Wed 01:33:36 PM 38.7797 -92.3589 250° West 453 521 34,000  Level Kansas City Center
Wed 01:34:36 PM 38.7444 -92.5119 254° West 451 519 34,000  Level Kansas City Center
Wed 01:35:40 PM 38.7086 -92.6683 254° West 454 522 34,000  Level Kansas City Center
Wed 01:36:41 PM 38.6725 -92.8244 254° West 458 527 34,000  Level Kansas City Center
Wed 01:37:42 PM 38.6358 -92.9797 253° West 458 527 34,000  Level Kansas City Center
Wed 01:38:46 PM 38.5994 -93.1342 253° West 457 526 34,000  Level Kansas City Center
Wed 01:39:48 PM 38.5561 -93.3186 253° West 454 522 34,000 -49 Level Kansas City Center
Wed 01:40:49 PM 38.5203 -93.4703 253° West 449 517 33,900  Descending Kansas City Center
Wed 01:41:52 PM 38.4833 -93.6231 253° West 450 518 34,000 48 Climbing Kansas City Center
Wed 01:42:53 PM 38.4478 -93.7742 253° West 448 516 34,000  Level Kansas City Center
Wed 01:43:57 PM 38.4111 -93.9250 253° West 446 513 34,000  Level Kansas City Center
Wed 01:44:57 PM 38.3733 -94.0767 252° West 447 514 34,000  Level Kansas City Center
Wed 01:45:59 PM 38.3347 -94.2350 253° West 447 514 34,000  Level Kansas City Center
Wed 01:47:02 PM 38.2997 -94.4033 255° West 443 510 34,000  Level Kansas City Center
Wed 01:48:03 PM 38.2986 -94.5500 269° West 438 504 34,000 -48 Level Kansas City Center
Wed 01:49:07 PM 38.3236 -94.7189 281° West 435 501 33,900 -48 Descending Kansas City Center
Wed 01:50:07 PM 38.3556 -94.8617 286° West 437 503 33,900 49 Level Kansas City Center
Wed 01:51:10 PM 38.3917 -95.0289 285° West 438 504 34,000 48 Climbing Kansas City Center
Wed 01:52:12 PM 38.4231 -95.1744 285° West 440 506 34,000  Level Kansas City Center
Wed 01:53:15 PM 38.4600 -95.3433 286° West 440 506 34,000  Level Kansas City Center
Wed 01:54:16 PM 38.4908 -95.4900 285° West 443 510 34,000  Level Kansas City Center
Wed 01:55:17 PM 38.5219 -95.6344 285° West 440 506 34,000  Level Kansas City Center
Wed 01:56:19 PM 38.5578 -95.8036 285° West 439 505 34,000  Level Kansas City Center
Wed 01:57:22 PM 38.5881 -95.9478 285° West 439 505 34,000  Level Kansas City Center
Wed 01:58:26 PM 38.6250 -96.1183 286° West 441 507 34,000  Level Kansas City Center
Wed 02:00:30 PM 38.6883 -96.4294 285° West 441 507 34,000  Level Kansas City Center
Wed 02:01:31 PM 38.7181 -96.5764 285° West 443 510 34,000  Level Kansas City Center
Wed 02:02:32 PM 38.7453 -96.7158 284° West 441 507 34,000  Level Kansas City Center
Wed 02:03:35 PM 38.7825 -96.8981 285° West 442 509 34,000  Level Kansas City Center
Wed 02:04:35 PM 38.7942 -97.0514 276° West 433 498 34,000  Level Kansas City Center
Wed 02:05:39 PM 38.7978 -97.2022 272° West 427 491 34,000  Level Kansas City Center
Wed 02:06:40 PM 38.7931 -97.3533 268° West 426 490 34,000  Level Kansas City Center
Wed 02:07:44 PM 38.7803 -97.5189 264° West 418 481 34,000  Level Kansas City Center
Wed 02:08:44 PM 38.7700 -97.6617 265° West 420 483 34,000  Level Kansas City Center
Wed 02:09:48 PM 38.7578 -97.8275 265° West 420 483 34,000  Level Kansas City Center
Wed 02:10:49 PM 38.7475 -97.9808 265° West 425 489 34,000  Level Kansas City Center
Wed 02:11:51 PM 38.7392 -98.1278 266° West 427 491 34,000  Level Kansas City Center
Wed 02:12:54 PM 38.7306 -98.2756 266° West 421 484 34,000  Level Kansas City Center
Wed 02:13:55 PM 38.7158 -98.4206 263° West 417 480 34,000 -98 Level Kansas City Center
Wed 02:14:57 PM 38.6817 -98.5889 255° West 409 471 33,800 -439 Descending Kansas City Center
Wed 02:15:58 PM 38.6547 -98.7283 256° West 405 466 33,100 -816 Descending Kansas City Center
Wed 02:17:02 PM 38.6194 -98.8639 252° West 402 463 32,100 -532 Descending Kansas City Center
Wed 02:18:02 PM 38.5836 -99.0003 251° West 405 466 32,000 -48 Descending Kansas City Center
Wed 02:19:06 PM 38.5539 -99.1375 255° West 404 465 32,000  Level Kansas City Center
Wed 02:20:07 PM 38.5344 -99.2808 260° West 410 472 32,000  Level Kansas City Center
Wed 02:21:08 PM 38.5089 -99.4514 259° West 409 471 32,000  Level Kansas City Center
Wed 02:22:11 PM 38.4861 -99.5972 259° West 410 472 32,000  Level Kansas City Center
Wed 02:23:13 PM 38.4658 -99.7344 259° West 411 473 32,000  Level Kansas City Center
Wed 02:24:16 PM 38.4408 -99.8922 259° West 409 471 32,000  Level Kansas City Center
Wed 02:24:50 PM 38.4264 -99.9828 259° West 409 471 32,000  Level Denver Center
Wed 02:25:51 PM 38.4050 -100.1175 259° West 406 467 32,000  Level Denver Center
Wed 02:26:53 PM 38.3800 -100.2722 258° West 402 463 32,000  Level Denver Center
Wed 02:27:22 PM 38.3736 -100.3175 260° West 403 464 32,000  Level Kansas City Center
Wed 02:28:23 PM 38.3486 -100.4719 258° West 400 460 32,000  Level Kansas City Center
Wed 02:29:24 PM 38.3264 -100.6025 258° West 397 457 32,000  Level Kansas City Center
Wed 02:29:57 PM 38.3125 -100.6894 259° West 397 457 32,000  Level Denver Center
Wed 02:30:59 PM 38.2911 -100.8211 258° West 398 458 32,000  Level Denver Center
Wed 02:32:00 PM 38.2647 -100.9731 258° West 396 456 32,000  Level Denver Center
Wed 02:33:02 PM 38.2428 -101.1050 258° West 399 459 32,000  Level Denver Center
Wed 02:34:03 PM 38.2172 -101.2592 258° West 402 463 32,000 293 Level Denver Center
Wed 02:35:05 PM 38.1950 -101.3917 258° West 402 463 32,600 829 Climbing Denver Center
Wed 02:36:06 PM 38.1689 -101.5461 258° West 403 464 33,700 1,122 Climbing Denver Center
Wed 02:37:08 PM 38.1461 -101.6753 257° West 394 453 34,900 1,024 Climbing Denver Center
Wed 02:38:09 PM 38.1239 -101.8028 258° West 387 445 35,800 537 Climbing Denver Center
Wed 02:39:11 PM 38.0989 -101.9492 258° West 381 438 36,000 97 Climbing Denver Center
Wed 02:40:13 PM 38.0756 -102.0767 257° West 387 445 36,000  Level Denver Center
Wed 02:41:14 PM 38.0503 -102.2256 258° West 390 449 36,000  Level Denver Center
Wed 02:42:16 PM 38.0269 -102.3519 257° West 389 448 36,000  Level Denver Center
Wed 02:43:17 PM 38.0017 -102.4953 257° West 387 445 36,000  Level Denver Center
Wed 02:44:19 PM 37.9792 -102.6203 257° West 383 441 36,000  Level Denver Center
Wed 02:45:20 PM 37.9528 -102.7656 257° West 380 437 36,000  Level Denver Center
Wed 02:46:22 PM 37.9294 -102.8906 257° West 381 438 36,000  Level Denver Center
Wed 02:47:24 PM 37.9064 -103.0114 256° West 373 429 36,000  Level Denver Center
Wed 02:48:25 PM 37.8836 -103.1319 257° West 370 426 36,000 -49 Level Denver Center
Wed 02:49:27 PM 37.8575 -103.2733 257° West 369 425 35,900  Descending Denver Center
Wed 02:50:28 PM 37.8311 -103.4156 257° West 372 428 36,000 49 Climbing Denver Center
Wed 02:51:30 PM 37.8072 -103.5392 256° West 379 436 36,000  Level Denver Center
Wed 02:52:31 PM 37.7808 -103.6828 257° West 377 434 36,000  Level Denver Center
Wed 02:53:33 PM 37.7558 -103.8081 256° West 385 443 36,000  Level Denver Center
Wed 02:54:35 PM 37.7322 -103.9319 256° West 384 442 36,000  Level Denver Center
Wed 02:55:36 PM 37.7044 -104.0747 256° West 381 438 36,000  Level Denver Center
Wed 02:56:38 PM 37.6761 -104.2156 256° West 377 434 36,000 -49 Level Denver Center
Wed 02:57:39 PM 37.6517 -104.3408 256° West 385 443 35,900  Descending Denver Center
Wed 02:58:41 PM 37.6264 -104.4686 256° West 393 452 36,000 49 Climbing Denver Center
Wed 02:59:42 PM 37.5975 -104.6133 256° West 381 438 36,000  Level Denver Center
Wed 03:00:44 PM 37.5728 -104.7339 256° West 371 427 36,000  Level Denver Center
Wed 03:01:46 PM 37.5439 -104.8758 256° West 373 429 36,000  Level Denver Center
Wed 03:02:47 PM 37.5200 -104.9956 256° West 368 423 36,000  Level Denver Center
Wed 03:03:49 PM 37.4911 -105.1311 255° West 361 415 36,000  Level Denver Center
Wed 03:04:50 PM 37.4675 -105.2536 256° West 370 426 36,000  Level Denver Center
Wed 03:05:52 PM 37.4419 -105.3728 255° West 368 423 36,000  Level Denver Center
Wed 03:06:53 PM 37.4119 -105.5136 255° West 371 427 36,000  Level Denver Center
Wed 03:07:55 PM 37.3858 -105.6353 255° West 376 433 36,000  Level Denver Center
Wed 03:08:56 PM 37.3564 -105.7761 255° West 375 432 36,000  Level Denver Center
Wed 03:09:58 PM 37.3283 -105.8981 254° West 378 435 36,000  Level Denver Center
Wed 03:10:59 PM 37.2961 -106.0203 252° West 385 443 36,000  Level Denver Center
Wed 03:12:01 PM 37.2600 -106.1639 253° West 388 447 36,000  Level Denver Center
Wed 03:13:02 PM 37.2275 -106.2881 252° West 392 451 36,000 49 Level Denver Center
Wed 03:14:03 PM 37.1897 -106.4367 252° West 399 459 36,100  Climbing Denver Center
Wed 03:15:05 PM 37.1575 -106.5614 252° West 395 455 36,000 -49 Descending Denver Center
Wed 03:16:06 PM 37.1253 -106.6861 252° West 393 452 36,000  Level Denver Center
Wed 03:17:08 PM 37.0892 -106.8308 253° West 390 449 36,000  Level Denver Center
Wed 03:18:09 PM 37.0569 -106.9497 251° West 380 437 36,000  Level Denver Center
Wed 03:19:11 PM 37.0189 -107.0922 252° West 385 443 36,000  Level Denver Center
Wed 03:20:12 PM 36.9875 -107.2161 252° West 390 449 36,000  Level Denver Center
Wed 03:21:13 PM 36.9544 -107.3361 251° West 384 442 36,000  Level Denver Center
Wed 03:22:15 PM 36.9172 -107.4781 252° West 385 443 36,000  Level Denver Center
Wed 03:23:16 PM 36.8839 -107.5972 251° West 381 438 36,000  Level Denver Center
Wed 03:24:18 PM 36.8469 -107.7372 252° West 381 438 36,000  Level Denver Center
Wed 03:25:19 PM 36.8142 -107.8575 251° West 382 440 36,000  Level Denver Center
Wed 03:26:20 PM 36.7811 -107.9789 251° West 385 443 36,000  Level Denver Center
Wed 03:27:22 PM 36.7439 -108.1183 252° West 382 440 36,000  Level Denver Center
Wed 03:28:23 PM 36.7217 -108.2417 257° West 380 437 36,000  Level Denver Center
Wed 03:29:25 PM 36.6947 -108.3847 257° West 381 438 36,000  Level Denver Center
Wed 03:30:26 PM 36.6725 -108.5072 257° West 380 437 36,000  Level Denver Center
Wed 03:31:27 PM 36.6458 -108.6536 257° West 388 447 36,000  Level Denver Center
Wed 03:32:29 PM 36.6217 -108.7772 256° West 387 445 36,000  Level Denver Center
Wed 03:33:30 PM 36.5981 -108.8992 256° West 382 440 36,000  Level Denver Center
Wed 03:34:31 PM 36.5714 -109.0414 257° West 381 438 36,000  Level Denver Center
Wed 03:35:33 PM 36.5481 -109.1636 257° West 381 438 36,000  Level Denver Center
Wed 03:36:34 PM 36.5200 -109.3089 257° West 389 448 36,000 49 Level Denver Center
Wed 03:37:36 PM 36.4964 -109.4331 257° West 388 447 36,100  Climbing Denver Center
Wed 03:38:37 PM 36.4678 -109.5764 256° West 386 444 36,000 -49 Descending Denver Center
Wed 03:39:38 PM 36.4439 -109.6992 256° West 384 442 36,000  Level Denver Center
Wed 03:40:40 PM 36.4200 -109.8225 257° West 385 443 36,000  Level Denver Center
Wed 03:41:41 PM 36.3917 -109.9661 256° West 384 442 36,000  Level Denver Center
Wed 03:42:42 PM 36.3664 -110.0878 256° West 382 440 36,000  Level Denver Center
Wed 03:43:44 PM 36.3408 -110.2167 256° West 385 443 36,000  Level Denver Center
Wed 03:44:45 PM 36.3144 -110.3461 256° West 388 447 36,000  Level Denver Center
Wed 03:45:47 PM 36.2869 -110.4775 255° West 392 451 36,000  Level Denver Center
Wed 03:46:48 PM 36.2553 -110.6344 256° West 392 451 36,000  Level Denver Center
Wed 03:47:50 PM 36.2281 -110.7647 256° West 391 450 36,000 -49 Level Denver Center
Wed 03:48:51 PM 36.2006 -110.8939 255° West 390 449 35,900  Descending Denver Center
Wed 03:49:52 PM 36.1722 -111.0261 255° West 395 455 36,000 49 Climbing Denver Center
Wed 03:50:54 PM 36.1447 -111.1564 255° West 393 452 36,000  Level Denver Center
Wed 03:51:55 PM 36.1181 -111.2872 256° West 392 451 36,000  Level Denver Center
Wed 03:52:57 PM 36.0911 -111.4181 256° West 393 452 36,000  Level Denver Center
Wed 03:53:58 PM 36.0631 -111.5489 255° West 393 452 36,000  Level Denver Center
Wed 03:55:00 PM 36.0344 -111.6806 255° West 395 455 36,000  Level Denver Center
Wed 03:56:01 PM 36.0017 -111.8378 256° West 395 455 36,000  Level Denver Center
Wed 03:56:45 PM 35.9833 -111.9217 255° West 402 463 36,000  Level Los Angeles Center
Wed 03:57:47 PM 35.9483 -112.0575 252° West 398 458 36,000  Level Los Angeles Center
Wed 03:58:49 PM 35.9039 -112.1819 246° West 396 456 36,000  Level Los Angeles Center
Wed 03:59:51 PM 35.8625 -112.3064 248° West 393 452 36,000  Level Los Angeles Center
Wed 04:00:53 PM 35.8122 -112.4556 247° West 395 455 36,000 -48 Level Los Angeles Center
Wed 04:01:55 PM 35.7700 -112.5803 247° West 397 457 35,900  Descending Los Angeles Center
Wed 04:02:57 PM 35.7281 -112.7022 247° West 393 452 36,000 48 Climbing Los Angeles Center
Wed 04:03:59 PM 35.6850 -112.8264 247° West 396 456 36,000  Level Los Angeles Center
Wed 04:05:01 PM 35.6417 -112.9511 247° West 391 450 36,000  Level Los Angeles Center
Wed 04:06:03 PM 35.6081 -113.0494 247° West 390 449 36,000  Level Los Angeles Center
Wed 04:07:06 PM 35.5481 -113.2217 247° West 392 451 36,000 -48 Level Los Angeles Center
Wed 04:08:08 PM 35.5097 -113.3339 247° West 391 450 35,900  Descending Los Angeles Center
Wed 04:09:10 PM 35.4661 -113.4556 246° West 392 451 36,000 48 Climbing Los Angeles Center
Wed 04:10:12 PM 35.4144 -113.6019 247° West 394 453 36,000  Level Los Angeles Center
Wed 04:11:14 PM 35.3714 -113.7258 247° West 395 455 36,000  Level Los Angeles Center
Wed 04:12:16 PM 35.3278 -113.8492 247° West 397 457 36,000  Level Los Angeles Center
Wed 04:13:18 PM 35.2778 -113.9897 246° West 399 459 36,000  Level Los Angeles Center
Wed 04:14:20 PM 35.2339 -114.1131 246° West 396 456 36,000  Level Los Angeles Center
Wed 04:15:22 PM 35.1908 -114.2322 246° West 384 442 36,000  Level Los Angeles Center
Wed 04:16:24 PM 35.1497 -114.3461 246° West 370 426 36,000  Level Los Angeles Center
Wed 04:17:39 PM 35.1078 -114.4631 246° West 373 429 36,000  Level Los Angeles Center
Wed 04:18:41 PM 35.0583 -114.5992 246° West 366 421 36,000  Level Los Angeles Center
Wed 04:19:43 PM 35.0078 -114.7339 245° Southwest 364 419 36,000  Level Los Angeles Center
Wed 04:20:45 PM 34.9683 -114.8450 247° West 359 413 36,000  Level Los Angeles Center
Wed 04:21:47 PM 34.9278 -114.9561 246° West 359 413 36,000  Level Los Angeles Center
Wed 04:22:50 PM 34.8864 -115.0700 246° West 366 421 36,000  Level Los Angeles Center
Wed 04:23:52 PM 34.8439 -115.1836 246° West 368 423 36,000  Level Los Angeles Center
Wed 04:24:54 PM 34.8019 -115.2956 245° Southwest 364 419 36,000  Level Los Angeles Center
Wed 04:25:56 PM 34.7522 -115.4294 246° West 362 417 36,000  Level Los Angeles Center
Wed 04:26:58 PM 34.7097 -115.5422 245° Southwest 365 420 36,000 -339 Level Los Angeles Center
Wed 04:28:00 PM 34.6744 -115.6381 246° West 365 420 35,300 -919 Descending Los Angeles Center
Wed 04:29:02 PM 34.6233 -115.7717 245° Southwest 364 419 34,100 -1,065 Descending Los Angeles Center
Wed 04:30:04 PM 34.5797 -115.8858 245° Southwest 371 427 33,100 -960 Descending Los Angeles Center
Wed 04:31:07 PM 34.5344 -116.0050 245° Southwest 383 441 32,100 -960 Descending Los Angeles Center
Wed 04:32:09 PM 34.4894 -116.1253 246° West 390 449 31,100 -919 Descending Los Angeles Center
Wed 04:33:11 PM 34.4433 -116.2461 245° Southwest 393 452 30,200 -871 Descending Los Angeles Center
Wed 04:34:13 PM 34.3972 -116.3647 245° Southwest 389 448 29,300 -1,161 Descending Los Angeles Center
Wed 04:35:15 PM 34.3406 -116.5092 245° Southwest 394 453 27,800 -1,680 Descending Los Angeles Center
Wed 04:36:18 PM 34.2964 -116.6256 245° Southwest 386 444 25,800 -1,935 Descending Los Angeles Center
Wed 04:37:19 PM 34.2492 -116.7442 244° Southwest 389 448 23,800 -1,920 Descending Los Angeles Center
Wed 04:38:23 PM 34.2056 -116.8567 245° Southwest 374 430 21,800 -1,935 Descending Los Angeles Center
Wed 04:39:23 PM 34.1631 -116.9650 245° Southwest 358 412 19,800 -1,831 Descending Los Angeles Center
Wed 04:40:21 PM 34.1167 -117.0833 245° Southwest 347 399 18,200 -1,538 Descending Southern California TRACON
Wed 04:41:20 PM 34.0667 -117.1833 239° Southwest 358 412 16,800 -1,462 Descending Southern California TRACON
Wed 04:42:20 PM 34.0500 -117.3000 260° West 338 389 15,300 -1,500 Descending Southern California TRACON
Wed 04:43:20 PM 34.0333 -117.4000 259° West 325 374 13,800 -1,388 Descending Southern California TRACON
Wed 04:44:21 PM 34.0333 -117.5167 270° West 309 356 12,500 -1,041 Descending Southern California TRACON
Wed 04:45:21 PM 34.0333 -117.6167 270° West 297 342 11,700 -1,152 Descending Southern California TRACON
Wed 04:46:26 PM 34.0167 -117.7167 259° West 276 318 10,100 -1,238 Descending Southern California TRACON
Wed 04:47:27 PM 34.0167 -117.8000 270° West 269 310 9,100 -942 Descending Southern California TRACON
Wed 04:48:27 PM 34.0000 -117.9000 259° West 248 285 8,200 -1,100 Descending Southern California TRACON
Wed 04:49:27 PM 34.0000 -117.9667 270° West 246 283 6,900 -1,158 Descending Southern California TRACON
Wed 04:50:21 PM 33.9833 -118.0500 256° West 242 278 6,000 -1,263 Descending Southern California TRACON
Wed 04:51:21 PM 33.9833 -118.1333 270° West 244 281 4,500 -1,364 Descending Southern California TRACON
Wed 04:51:49 PM 33.9772 -118.1625 256° West 242 278 4,000 -1,133 Descending Los Angeles Center
Wed 04:52:51 PM 33.9692 -118.2344 262° West 228 262 2,800 -1,016 Descending Los Angeles Center
Wed 04:53:53 PM 33.9633 -118.2903 263° West 191 220 1,900 -774 Descending Los Angeles Center
Wed 04:54:55 PM 33.9589 -118.3350 263° West 159 183 1,200 -677 Descending Los Angeles Center
Wed 04:55:57 PM 33.9556 -118.3822 265° West 130 150 500 -532 Descending Los Angeles Center
Wed 04:56:59 PM 33.9508 -118.4183 261° West 127 146 100 -387 Descending Los Angeles Center
Wed 04:58:00 PM 33.9425 -118.4081 259° West  Level Estimated

Login

Don't have an account? Register now (free) for customized features, flight alerts, and more!